»·PEaware :: GSA5150 KMRY-KLAS

GSA5150 :: KMRY-KLAS

FLIGHT INFORMATION

Flight Status: Arrived
Operator:
Global Sim Alliance
More flights by this operator :: More flights under this callsign
Pilot: Anonymous 17686 (17686)
Aircraft: LOCKHEED L-049/749/1049 CONSTELLATION
(CONI)
More flights by this aircraft type
Origin: KMRY Monterey Peninsula
United States
Destination: KLAS McCarran Intl
United States
More flights between these airports :: More routes between these airports
Route: +SNS PXN NTELL BIH LIDAT J92 BTY V105 LAS
File this flight plan on PilotEdge
Remarks:
Altitude:
(Current/Filed)
21,000ft
Speed:
(Current/Filed)
180kts
Departed: 04-Aug-18 09:14 PM
Arrived: 04-Aug-18 11:01 PM
Distance/Time
Traveled:
325nm/1:47
Distance/Time
To Go:
Arrived

Flight Plot

Page will automatically refresh every two minutes.

Flight plan parsing failed; only flown route is shown


Map Options




Map Legend


Flown Route
Filed Route
Departure Airport
Arrival Airport
Navaid (VOR, NDB)
Fix

Horizontal Profiles

Position Reports

Time Latitude Longitude Heading Altitude Ground
Speed
04-Aug-18 20:57 36.587932 -121.850827 238 215ft 0kts
04-Aug-18 20:58 36.587932 -121.850827 238 215ft 0kts
04-Aug-18 20:59 36.587932 -121.850827 238 215ft 0kts
04-Aug-18 21:00 36.587932 -121.850827 238 215ft 0kts
04-Aug-18 21:01 36.587932 -121.850827 238 215ft 0kts
04-Aug-18 21:02 36.587932 -121.850829 237 215ft 0kts
04-Aug-18 21:03 36.587931 -121.850830 234 215ft 0kts
04-Aug-18 21:04 36.587930 -121.850832 231 215ft 0kts
04-Aug-18 21:05 36.587928 -121.850834 228 215ft 0kts
04-Aug-18 21:06 36.588033 -121.850697 226 215ft 2kts
04-Aug-18 21:07 36.588268 -121.850391 226 215ft 0kts
04-Aug-18 21:08 36.588266 -121.850393 226 215ft 0kts
04-Aug-18 21:09 36.588265 -121.850394 226 215ft 0kts
04-Aug-18 21:10 36.586631 -121.845937 126 215ft 15kts
04-Aug-18 21:11 36.584957 -121.841228 113 215ft 29kts
04-Aug-18 21:12 36.583438 -121.836657 113 215ft 2kts
04-Aug-18 21:13 36.582969 -121.835292 107 215ft 6kts
04-Aug-18 21:14 36.583378 -121.833683 295 215ft 1kts
04-Aug-18 21:15 36.592116 -121.859496 292 1104ft 103kts
04-Aug-18 21:16 36.620836 -121.874198 339 2697ft 118kts
04-Aug-18 21:17 36.639067 -121.849052 97 3751ft 151kts
04-Aug-18 21:18 36.645363 -121.803812 60 4771ft 137kts
04-Aug-18 21:19 36.652763 -121.753833 78 5541ft 157kts
04-Aug-18 21:20 36.656084 -121.698689 80 6387ft 161kts
04-Aug-18 21:21 36.660257 -121.642924 80 7207ft 165kts
04-Aug-18 21:22 36.664170 -121.585496 83 8144ft 164kts
04-Aug-18 21:23 36.669006 -121.529085 79 8943ft 164kts
04-Aug-18 21:24 36.675217 -121.472238 79 9660ft 166kts
04-Aug-18 21:25 36.680213 -121.413968 84 10194ft 176kts
04-Aug-18 21:26 36.684053 -121.350387 87 10511ft 193kts
04-Aug-18 21:27 36.686286 -121.282185 87 10867ft 198kts
04-Aug-18 21:28 36.688461 -121.213313 87 11269ft 198kts
04-Aug-18 21:29 36.694011 -121.145611 78 11726ft 194kts
04-Aug-18 21:30 36.709433 -121.081321 69 12104ft 194kts
04-Aug-18 21:31 36.727785 -121.017824 69 12430ft 195kts
04-Aug-18 21:32 36.747167 -120.954299 67 12731ft 197kts
04-Aug-18 21:33 36.765968 -120.890263 69 13032ft 197kts
04-Aug-18 21:34 36.784047 -120.825749 70 13379ft 192kts
04-Aug-18 21:35 36.801434 -120.762797 69 14086ft 192kts
04-Aug-18 21:36 36.818189 -120.699300 71 14689ft 194kts
04-Aug-18 21:37 36.834381 -120.634654 72 15312ft 192kts
04-Aug-18 21:38 36.850698 -120.569806 73 15709ft 201kts
04-Aug-18 21:39 36.865954 -120.502171 75 16157ft 203kts
04-Aug-18 21:40 36.881447 -120.434071 74 16560ft 205kts
04-Aug-18 21:41 36.897324 -120.365436 74 16926ft 206kts
04-Aug-18 21:42 36.913314 -120.296313 74 17256ft 207kts
04-Aug-18 21:43 36.929700 -120.226942 73 17556ft 208kts
04-Aug-18 21:44 36.947148 -120.158316 72 17953ft 202kts
04-Aug-18 21:45 36.964666 -120.091440 72 18227ft 202kts
04-Aug-18 21:46 36.982524 -120.023421 71 18407ft 207kts
04-Aug-18 21:47 37.000314 -119.956428 72 18783ft 196kts
04-Aug-18 21:48 37.017292 -119.893636 72 18856ft 190kts
04-Aug-18 21:49 37.034407 -119.831203 71 18808ft 188kts
04-Aug-18 21:50 37.050927 -119.770892 71 18800ft 179kts
04-Aug-18 21:51 37.067832 -119.708871 72 18371ft 201kts
04-Aug-18 21:52 37.086178 -119.634342 76 17975ft 245kts
04-Aug-18 21:53 37.104902 -119.548249 75 17444ft 267kts
04-Aug-18 21:54 37.125549 -119.457957 75 17142ft 271kts
04-Aug-18 21:55 37.146365 -119.367359 74 17127ft 267kts
04-Aug-18 21:56 37.167206 -119.278625 74 17137ft 263kts
04-Aug-18 21:57 37.185864 -119.190455 77 17162ft 260kts
04-Aug-18 21:58 37.203207 -119.102535 76 17192ft 259kts
04-Aug-18 21:59 37.222953 -119.016314 74 17265ft 256kts
04-Aug-18 22:00 37.243180 -118.930948 74 17348ft 255kts
04-Aug-18 22:01 37.264068 -118.845633 73 17324ft 256kts
04-Aug-18 22:02 37.284319 -118.759641 75 17345ft 256kts
04-Aug-18 22:03 37.304841 -118.674336 75 17313ft 256kts
04-Aug-18 22:04 37.325976 -118.588722 75 17228ft 257kts
04-Aug-18 22:05 37.347589 -118.503187 74 17176ft 256kts
04-Aug-18 22:06 37.368753 -118.417503 75 17128ft 255kts
04-Aug-18 22:07 37.382120 -118.332398 87 17171ft 251kts
04-Aug-18 22:08 37.389021 -118.241953 87 17302ft 270kts
04-Aug-18 22:09 37.395137 -118.146440 91 17216ft 268kts
04-Aug-18 22:10 37.397932 -118.053702 91 17105ft 264kts
04-Aug-18 22:11 37.400103 -117.963677 91 17236ft 252kts
04-Aug-18 22:12 37.402171 -117.874405 91 17041ft 257kts
04-Aug-18 22:13 37.404177 -117.785738 91 17117ft 252kts
04-Aug-18 22:14 37.407250 -117.697839 90 17072ft 253kts
04-Aug-18 22:15 37.412484 -117.609766 88 17087ft 247kts
04-Aug-18 22:16 37.418023 -117.525031 88 17041ft 238kts
04-Aug-18 22:17 37.424057 -117.441926 88 17046ft 239kts
04-Aug-18 22:18 37.430058 -117.358129 87 17092ft 242kts
04-Aug-18 22:19 37.421314 -117.280358 141 17595ft 212kts
04-Aug-18 22:20 37.372061 -117.231578 145 17031ft 229kts
04-Aug-18 22:21 37.323065 -117.181807 144 16967ft 225kts
04-Aug-18 22:22 37.274165 -117.133642 147 16974ft 219kts
04-Aug-18 22:23 37.223920 -117.091427 153 16895ft 220kts
04-Aug-18 22:24 37.170959 -117.053406 153 16924ft 215kts
04-Aug-18 22:25 37.119704 -117.012180 149 16998ft 225kts
04-Aug-18 22:26 37.065384 -116.968181 151 16947ft 238kts
04-Aug-18 22:27 37.008684 -116.923206 151 17005ft 242kts
04-Aug-18 22:28 36.950819 -116.877919 151 16972ft 249kts
04-Aug-18 22:29 36.892329 -116.830145 149 16914ft 256kts
04-Aug-18 22:30 36.833096 -116.779906 149 16918ft 258kts
04-Aug-18 22:31 36.774835 -116.728275 144 16959ft 260kts
04-Aug-18 22:32 36.718256 -116.669813 144 16928ft 263kts
04-Aug-18 22:33 36.662388 -116.611599 144 16955ft 259kts
04-Aug-18 22:34 36.607516 -116.554792 145 16877ft 253kts
04-Aug-18 22:35 36.552411 -116.500862 146 16787ft 250kts
04-Aug-18 22:36 36.498465 -116.447902 147 16855ft 241kts
04-Aug-18 22:37 36.445034 -116.398477 148 16908ft 238kts
04-Aug-18 22:38 36.391422 -116.349496 149 16848ft 240kts
04-Aug-18 22:39 36.336483 -116.302093 150 16811ft 241kts
04-Aug-18 22:40 36.281457 -116.254506 149 16773ft 241kts
04-Aug-18 22:41 36.226922 -116.205926 148 16750ft 242kts
04-Aug-18 22:42 36.175760 -116.153547 143 17069ft 230kts
04-Aug-18 22:43 36.127301 -116.098434 142 17042ft 237kts
04-Aug-18 22:44 36.079479 -116.043559 142 17236ft 233kts
04-Aug-18 22:45 36.038172 -115.981872 99 17160ft 249kts
04-Aug-18 22:46 36.039076 -115.892854 89 16960ft 257kts
04-Aug-18 22:47 36.041676 -115.804596 88 17038ft 260kts
04-Aug-18 22:48 36.045426 -115.713776 88 17166ft 268kts
04-Aug-18 22:49 36.049672 -115.621892 87 16894ft 269kts
04-Aug-18 22:50 36.060263 -115.527354 81 16006ft 284kts
04-Aug-18 22:51 36.074811 -115.431013 67 15226ft 289kts
04-Aug-18 22:52 36.111058 -115.336241 63 13706ft 308kts
04-Aug-18 22:53 36.145647 -115.249408 63 12902ft 263kts
04-Aug-18 22:54 36.176625 -115.170731 65 11696ft 250kts
04-Aug-18 22:55 36.207808 -115.093361 63 9969ft 250kts
04-Aug-18 22:56 36.202720 -115.022768 152 8777ft 205kts
04-Aug-18 22:57 36.160621 -115.043407 257 7461ft 193kts
04-Aug-18 22:58 36.166601 -115.105255 244 6692ft 143kts
04-Aug-18 22:59 36.142160 -115.134480 194 4212ft 105kts
04-Aug-18 23:00 36.113426 -115.147928 201 2618ft 111kts
04-Aug-18 23:01 36.090332 -115.161541 203 2125ft 56kts
04-Aug-18 23:02 36.082906 -115.164676 181 2125ft 18kts
04-Aug-18 23:03 36.081505 -115.161393 88 2125ft 21kts
04-Aug-18 23:04 36.081510 -115.156286 90 2125ft 0kts

Navigation Log

Ident Type
Flight plan parsing failed, navigation log unavailable